< < Back
Terminal Aerodrome Forecast


Current Version              Previous Versions:   1  2  3  4  5  6  7  8  9  

Terminal Aerodrome Forecast

499
FTUS42 KTAE 051730
TAFTLH
TAF
KTLH 051730Z 0518/0618 08010G15KT P6SM SCT050 BKN250
     FM060000 08005KT P6SM BKN045
     FM061200 06008KT P6SM SCT040 SCT250=



Latest METAR

889
SAUS80 KWBC 051900 RRA
MTRTLH
METAR KTLH 051853Z 06009KT 10SM BKN060 OVC250 28/13 A3018 RMK AO2 SLP220
T02780133


USA.gov is the U.S. government's official web portal to all federal, state and local government web resources and services.